Maracaibo, Venezuela
Current Conditions -  °F | °C
As of 6:00 PM on Saturday 25 Oct 2014 (Local Time) from SKRH Reporting Station
Broken Clouds Broken Clouds  
Wind Chill: 86°   Ceiling: 20000
Heat Index: 97°   Visibility: 6mi
Dew Point: 77°   Wind: 12mph
Humidity: 74%   Direction: 30°NNE
Pressure: 29.77"   Gusts: NA
Location:  10.73°N, 71.66°W
Report Text: SKRH 252200Z 03010KT 9999 SCT020CB BKN200 30/25 A2977 RMKCB/SE/S
Loading
Personal Weather Stations






























Interactive Weather Map
Tropical Storm Tracking
New forecast layout! Learn more

10-Day Weather Forecast

Advertisements
Track Severe Weather on mobile